In Rescue
 
Open Full Screen Window  High Contrast Mode
August 12, 2020 3:57 AM EDT
Weather Information
Wind Direction
  ---
Wind Speed
  00 kt (0 mph)
Wind Gust
  00 kt (0 mph)
Altimeter
30.05 in
Visibility
10 SM
Temperature
18° C
64° F
Dewpoint
16° C
61° F
Humidity
88%
1hr Rain Fall
00.00 in.
24hr Rain Fall
00.00 in.
Sky Condition
Clear
VFR

METAR KONZ 120757Z AUTO 00000KT 10SM CLR 18/16 A3005 RMK AO2 T01780155

FAA Disclaimer: The data displayed is for advisory purposes only and is not to be used for flight planning or operations.